createdAt,value
2022-08-03T00:01:51.464Z,100.00
2022-08-03T00:04:18.069Z,100.00
2022-08-03T00:06:44.660Z,100.00
2022-08-03T00:09:11.279Z,100.00
2022-08-03T00:11:38.218Z,100.00
2022-08-03T00:14:05.684Z,100.00
2022-08-03T00:16:32.616Z,100.00
2022-08-03T00:19:00.763Z,100.00
2022-08-03T00:21:28.327Z,100.00
2022-08-03T00:23:54.910Z,100.00
2022-08-03T00:26:21.957Z,100.00
2022-08-03T00:28:49.357Z,100.00
2022-08-03T00:31:16.125Z,100.00
2022-08-03T00:33:59.629Z,100.00
2022-08-03T00:36:29.517Z,100.00
2022-08-03T00:38:56.667Z,100.00
2022-08-03T00:41:23.228Z,100.00
2022-08-03T00:43:49.826Z,100.00
2022-08-03T00:46:21.411Z,100.00
2022-08-03T00:48:51.810Z,100.00
2022-08-03T00:51:20.120Z,100.00
2022-08-03T00:53:46.780Z,100.00
2022-08-03T00:56:15.152Z,100.00
2022-08-03T00:58:44.032Z,100.00
2022-08-03T01:01:12.324Z,100.00
2022-08-03T01:03:39.327Z,100.00
2022-08-03T01:06:20.807Z,100.00
2022-08-03T01:09:03.846Z,100.00
2022-08-03T01:12:01.159Z,100.00
2022-08-03T01:14:36.050Z,100.00
2022-08-03T01:17:27.213Z,100.00
2022-08-03T01:20:02.127Z,100.00
2022-08-03T01:22:50.666Z,100.00
2022-08-03T01:25:38.908Z,100.00
2022-08-03T01:28:33.190Z,100.00
2022-08-03T01:31:05.056Z,100.00
2022-08-03T01:33:37.435Z,100.00
2022-08-03T01:36:06.963Z,100.00
2022-08-03T01:38:36.478Z,100.00
2022-08-03T01:41:06.349Z,100.00
2022-08-03T01:44:27.698Z,100.00
2022-08-03T01:46:20.726Z,100.00
2022-08-03T01:48:48.796Z,100.00
2022-08-03T01:51:16.941Z,100.00
2022-08-03T01:53:44.284Z,100.00
2022-08-03T01:56:11.954Z,100.00
2022-08-03T01:58:39.998Z,100.00
2022-08-03T02:01:07.122Z,100.00
2022-08-03T02:03:37.534Z,100.00
2022-08-03T02:07:02.889Z,100.00
2022-08-03T02:08:52.931Z,100.00
2022-08-03T02:11:19.565Z,100.00
2022-08-03T02:13:47.250Z,100.00
2022-08-03T02:16:14.448Z,100.00
2022-08-03T02:18:42.314Z,100.00
2022-08-03T02:21:11.005Z,100.00
2022-08-03T02:23:38.475Z,100.00
2022-08-03T02:26:07.505Z,100.00
2022-08-03T02:28:40.806Z,100.00
2022-08-03T02:31:13.137Z,100.00
2022-08-03T02:33:43.725Z,100.00
2022-08-03T02:36:11.750Z,100.00
2022-08-03T02:38:41.486Z,100.00
2022-08-03T02:41:09.419Z,100.00
2022-08-03T02:43:40.253Z,100.00
2022-08-03T02:46:30.570Z,100.00
2022-08-03T02:48:59.443Z,100.00
2022-08-03T02:51:47.430Z,100.00
2022-08-03T02:54:17.077Z,100.00
2022-08-03T02:56:44.489Z,100.00
2022-08-03T02:59:12.161Z,100.00
2022-08-03T03:01:39.689Z,100.00
2022-08-03T03:04:06.328Z,100.00
2022-08-03T03:06:35.785Z,100.00
2022-08-03T03:09:03.466Z,100.00
2022-08-03T03:11:30.845Z,100.00
2022-08-03T03:13:57.958Z,100.00
2022-08-03T03:16:26.305Z,100.00
2022-08-03T03:18:53.772Z,100.00
2022-08-03T03:21:21.146Z,100.00
2022-08-03T03:23:48.189Z,100.00
2022-08-03T03:26:15.773Z,100.00
2022-08-03T03:28:42.453Z,100.00
2022-08-03T03:31:09.939Z,100.00
2022-08-03T03:33:38.050Z,100.00
2022-08-03T03:36:06.449Z,100.00
2022-08-03T03:38:33.413Z,100.00
2022-08-03T03:41:00.507Z,100.00
2022-08-03T03:43:27.263Z,100.00
2022-08-03T03:45:55.094Z,100.00
2022-08-03T03:48:21.831Z,100.00
2022-08-03T03:50:49.834Z,100.00
2022-08-03T03:53:16.677Z,100.00
2022-08-03T03:55:59.028Z,100.00
2022-08-03T03:58:29.043Z,100.00
2022-08-03T04:00:55.757Z,100.00
2022-08-03T04:03:22.465Z,100.00
2022-08-03T04:06:07.931Z,100.00
2022-08-03T04:08:53.426Z,100.00
2022-08-03T04:11:29.102Z,100.00
2022-08-03T04:14:01.793Z,100.00
2022-08-03T04:16:31.593Z,100.00
2022-08-03T04:19:05.299Z,100.00
2022-08-03T04:21:33.103Z,100.00
2022-08-03T04:24:02.053Z,100.00
2022-08-03T04:26:31.219Z,100.00
2022-08-03T04:28:58.967Z,100.00
2022-08-03T04:31:25.965Z,100.00
2022-08-03T04:33:53.663Z,100.00
2022-08-03T04:36:26.029Z,100.00
2022-08-03T04:38:55.885Z,100.00
2022-08-03T04:41:25.135Z,100.00
2022-08-03T04:43:54.472Z,100.00
2022-08-03T04:46:23.597Z,100.00
2022-08-03T04:48:50.524Z,100.00
2022-08-03T04:51:17.297Z,100.00
2022-08-03T04:53:44.203Z,100.00
2022-08-03T04:56:10.865Z,100.00
2022-08-03T04:58:37.558Z,100.00
2022-08-03T05:01:04.146Z,100.00
2022-08-03T05:03:31.899Z,100.00
2022-08-03T05:06:09.629Z,100.00
2022-08-03T05:08:46.343Z,100.00
2022-08-03T05:11:15.508Z,100.00
2022-08-03T05:13:42.316Z,100.00
2022-08-03T05:16:09.015Z,100.00
2022-08-03T05:18:36.032Z,100.00
2022-08-03T05:21:02.722Z,100.00
2022-08-03T05:23:29.469Z,100.00
2022-08-03T05:25:56.225Z,100.00
2022-08-03T05:28:23.193Z,100.00
2022-08-03T05:30:49.849Z,100.00
2022-08-03T05:33:16.422Z,100.00
2022-08-03T05:36:01.459Z,100.00
2022-08-03T05:38:34.399Z,100.00
2022-08-03T05:41:23.110Z,100.00
2022-08-03T05:43:54.289Z,100.00
2022-08-03T05:46:22.147Z,100.00
2022-08-03T05:48:48.713Z,100.00
2022-08-03T05:51:15.397Z,100.00
2022-08-03T05:53:42.847Z,100.00
2022-08-03T05:56:14.879Z,100.00
2022-08-03T05:58:48.010Z,100.00
2022-08-03T06:01:16.197Z,100.00
2022-08-03T06:03:42.926Z,100.00
2022-08-03T06:06:09.708Z,100.00
2022-08-03T06:08:36.443Z,100.00
2022-08-03T06:11:03.646Z,100.00
2022-08-03T06:13:30.309Z,100.00
2022-08-03T06:15:56.938Z,100.00
2022-08-03T06:18:24.664Z,100.00
2022-08-03T06:20:52.324Z,100.00
2022-08-03T06:23:19.305Z,100.00
2022-08-03T06:25:46.224Z,100.00
2022-08-03T06:28:42.501Z,100.00
2022-08-03T06:31:01.255Z,100.00
2022-08-03T06:33:48.359Z,100.00
2022-08-03T06:36:15.148Z,100.00
2022-08-03T06:38:41.894Z,100.00
2022-08-03T06:41:08.548Z,100.00
2022-08-03T06:43:37.610Z,96.98
2022-08-03T06:46:05.520Z,92.14
2022-08-03T06:48:32.416Z,88.85
2022-08-03T06:50:59.259Z,88.90
2022-08-03T06:53:26.164Z,88.93
2022-08-03T06:55:54.965Z,86.44
2022-08-03T06:58:22.503Z,83.66
2022-08-03T07:00:49.220Z,81.05
2022-08-03T07:03:16.176Z,77.07
2022-08-03T07:05:45.920Z,74.44
2022-08-03T07:08:12.905Z,73.34
2022-08-03T07:10:39.557Z,70.96
2022-08-03T07:13:06.666Z,71.40
2022-08-03T07:15:54.494Z,72.66
2022-08-03T07:18:29.443Z,66.53
2022-08-03T07:21:00.469Z,63.10
2022-08-03T07:23:27.071Z,63.22
2022-08-03T07:25:53.737Z,62.21
2022-08-03T07:28:20.677Z,60.79
2022-08-03T07:30:47.531Z,59.24
2022-08-03T07:33:15.142Z,60.51
2022-08-03T07:35:41.978Z,59.45
2022-08-03T07:38:08.651Z,56.75
2022-08-03T07:40:35.241Z,56.83
2022-08-03T07:43:03.287Z,51.87
2022-08-03T07:45:31.217Z,50.72
2022-08-03T07:47:57.893Z,50.08
2022-08-03T07:50:24.521Z,49.29
2022-08-03T07:52:56.004Z,49.06
2022-08-03T07:55:25.089Z,48.26
2022-08-03T07:58:02.670Z,48.38
2022-08-03T08:00:29.395Z,48.76
2022-08-03T08:02:55.967Z,48.09
2022-08-03T08:05:22.629Z,44.62
2022-08-03T08:07:50.804Z,44.98
2022-08-03T08:10:18.405Z,45.24
2022-08-03T08:12:44.968Z,45.27
2022-08-03T08:15:11.549Z,45.40
2022-08-03T08:17:50.692Z,44.96
2022-08-03T08:20:28.291Z,44.12
2022-08-03T08:23:00.942Z,42.68
2022-08-03T08:25:29.298Z,41.48
2022-08-03T08:28:30.388Z,41.64
2022-08-03T08:30:43.056Z,41.47
2022-08-03T08:33:22.477Z,42.88
2022-08-03T08:35:51.347Z,40.80
2022-08-03T08:38:17.950Z,41.05
2022-08-03T08:40:44.668Z,41.26
2022-08-03T08:43:11.250Z,40.05
2022-08-03T08:45:38.004Z,39.98
2022-08-03T08:48:08.192Z,40.16
2022-08-03T08:50:37.508Z,39.67
2022-08-03T08:53:11.440Z,40.73
2022-08-03T08:55:59.289Z,41.34
2022-08-03T08:58:30.269Z,39.77
2022-08-03T09:00:57.154Z,39.37
2022-08-03T09:03:29.995Z,40.06
2022-08-03T09:06:00.627Z,41.86
2022-08-03T09:08:27.283Z,39.10
2022-08-03T09:10:53.891Z,38.02
2022-08-03T09:13:21.032Z,39.30
2022-08-03T09:16:00.682Z,39.41
2022-08-03T09:18:32.507Z,39.41
2022-08-03T09:21:32.828Z,39.88
2022-08-03T09:24:03.729Z,38.73
2022-08-03T09:26:31.850Z,38.00
2022-08-03T09:29:13.128Z,37.86
2022-08-03T09:31:45.473Z,36.49
2022-08-03T09:34:17.375Z,36.13
2022-08-03T09:36:48.808Z,35.51
2022-08-03T09:39:41.420Z,34.58
2022-08-03T09:42:09.416Z,34.26
2022-08-03T09:44:42.316Z,34.24
2022-08-03T09:47:16.606Z,34.52
2022-08-03T09:50:01.815Z,33.69
2022-08-03T09:52:39.198Z,33.46
2022-08-03T09:56:32.552Z,33.04
2022-08-03T09:58:07.117Z,33.56
2022-08-03T10:00:54.103Z,32.70
2022-08-03T10:03:21.187Z,32.28
2022-08-03T10:05:47.750Z,31.44
2022-08-03T10:08:19.416Z,30.02
2022-08-03T10:10:48.898Z,30.42
2022-08-03T10:13:18.638Z,31.65
2022-08-03T10:16:23.182Z,31.61
2022-08-03T10:18:33.375Z,31.71
2022-08-03T10:21:04.017Z,31.66
2022-08-03T10:23:34.397Z,31.07
2022-08-03T10:26:04.096Z,30.98
2022-08-03T10:28:35.948Z,30.40
2022-08-03T10:31:02.920Z,30.51
2022-08-03T10:33:50.277Z,31.32
2022-08-03T10:36:18.748Z,30.75
2022-08-03T10:38:52.501Z,30.46
2022-08-03T10:41:21.463Z,30.78
2022-08-03T10:44:04.524Z,30.65
2022-08-03T10:46:31.657Z,31.29
2022-08-03T10:48:58.618Z,32.19
2022-08-03T10:51:30.459Z,32.69
2022-08-03T10:53:57.482Z,29.75
2022-08-03T10:56:54.688Z,30.94
2022-08-03T10:59:46.012Z,30.44
2022-08-03T11:02:15.885Z,29.92
2022-08-03T11:04:42.895Z,28.90
2022-08-03T11:07:16.236Z,28.93
2022-08-03T11:09:45.146Z,29.37
2022-08-03T11:12:32.613Z,27.28
2022-08-03T11:15:02.186Z,26.83
2022-08-03T11:17:29.019Z,25.31
2022-08-03T11:19:57.777Z,26.33
2022-08-03T11:22:25.662Z,26.70
2022-08-03T11:24:54.315Z,24.49
2022-08-03T11:27:29.315Z,24.89
2022-08-03T11:29:58.533Z,25.15
2022-08-03T11:32:40.328Z,24.38
2022-08-03T11:35:36.564Z,24.34
2022-08-03T11:38:05.654Z,24.46
2022-08-03T11:40:51.394Z,24.12
2022-08-03T11:43:26.722Z,25.28
2022-08-03T11:46:00.055Z,24.49
2022-08-03T11:48:44.569Z,24.14
2022-08-03T11:51:22.658Z,23.58
2022-08-03T11:53:56.514Z,22.17
2022-08-03T11:56:23.574Z,24.58
2022-08-03T11:59:12.893Z,24.92
2022-08-03T12:01:42.042Z,24.51
2022-08-03T12:04:08.654Z,24.80
2022-08-03T12:06:54.768Z,24.32
2022-08-03T12:09:22.106Z,23.57
2022-08-03T12:11:59.774Z,23.62
2022-08-03T12:14:50.041Z,23.77
2022-08-03T12:17:14.299Z,24.43
2022-08-03T12:19:44.110Z,24.51
2022-08-03T12:22:10.810Z,26.14
2022-08-03T12:24:42.421Z,24.96
2022-08-03T12:27:09.263Z,23.61
2022-08-03T12:29:36.156Z,23.80
2022-08-03T12:32:02.790Z,23.94
2022-08-03T12:34:47.353Z,24.94
2022-08-03T12:37:28.963Z,24.35
2022-08-03T12:40:00.655Z,24.16
2022-08-03T12:42:34.673Z,23.56
2022-08-03T12:45:19.010Z,23.86
2022-08-03T12:47:56.292Z,23.13
2022-08-03T12:50:34.024Z,21.97
2022-08-03T12:53:03.103Z,22.35
2022-08-03T12:55:57.434Z,22.83
2022-08-03T12:58:35.159Z,22.61
2022-08-03T13:01:05.095Z,23.38
2022-08-03T13:03:49.901Z,24.63
2022-08-03T13:06:26.557Z,23.27
2022-08-03T13:09:05.449Z,23.77
2022-08-03T13:11:57.206Z,23.59
2022-08-03T13:14:20.032Z,24.82
2022-08-03T13:16:48.251Z,24.46
2022-08-03T13:19:15.427Z,23.54
2022-08-03T13:22:03.275Z,23.94
2022-08-03T13:24:30.481Z,24.24
2022-08-03T13:26:58.003Z,24.65
2022-08-03T13:29:24.732Z,25.19
2022-08-03T13:31:51.648Z,26.00
2022-08-03T13:34:22.909Z,25.71
2022-08-03T13:39:57.401Z,25.75
2022-08-03T13:42:25.570Z,24.67
2022-08-03T13:44:52.207Z,24.34
2022-08-03T13:47:19.468Z,22.96
2022-08-03T13:49:54.195Z,21.66
2022-08-03T13:52:33.248Z,20.46
2022-08-03T13:55:00.774Z,20.64
2022-08-03T13:58:02.507Z,18.33
2022-08-03T14:00:16.132Z,17.13
2022-08-03T14:03:01.881Z,15.70
2022-08-03T14:05:32.055Z,14.87
2022-08-03T14:08:04.346Z,13.25
2022-08-03T14:10:36.719Z,12.92
2022-08-03T14:13:04.451Z,12.54
2022-08-03T14:15:31.372Z,12.27
2022-08-03T14:17:58.568Z,11.99
2022-08-03T14:20:38.821Z,12.86
2022-08-03T14:23:14.344Z,15.32
2022-08-03T14:25:51.734Z,15.13
2022-08-03T14:28:23.926Z,15.75
2022-08-03T14:30:54.745Z,16.27
2022-08-03T14:33:21.865Z,17.20
2022-08-03T14:35:48.604Z,17.42
2022-08-03T14:38:15.495Z,17.60
2022-08-03T14:40:42.516Z,17.37
2022-08-03T14:43:09.126Z,18.14
2022-08-03T14:45:35.875Z,17.84
2022-08-03T14:50:31.701Z,18.56
2022-08-03T14:50:52.571Z,18.61
2022-08-03T14:53:19.952Z,18.48
2022-08-03T14:55:50.957Z,19.04
2022-08-03T14:58:22.546Z,19.19
2022-08-03T15:00:50.850Z,19.57
2022-08-03T15:03:20.459Z,19.83
2022-08-03T15:05:47.364Z,20.27
2022-08-03T15:08:13.971Z,20.34
2022-08-03T15:10:44.876Z,19.50
2022-08-03T15:13:15.294Z,20.45
2022-08-03T15:15:42.217Z,20.08
2022-08-03T15:18:08.894Z,21.12
2022-08-03T15:20:50.766Z,20.37
2022-08-03T15:23:18.334Z,20.23
2022-08-03T15:26:31.704Z,20.03
2022-08-03T15:28:32.692Z,21.27
2022-08-03T15:30:59.361Z,21.61
2022-08-03T15:33:26.151Z,20.79
2022-08-03T15:35:53.356Z,20.76
2022-08-03T15:38:22.958Z,21.31
2022-08-03T15:40:54.589Z,21.32
2022-08-03T15:43:22.478Z,22.72
2022-08-03T15:45:54.644Z,22.24
2022-08-03T15:48:35.770Z,21.68
2022-08-03T15:51:02.345Z,22.66
2022-08-03T15:53:29.046Z,24.21
2022-08-03T15:55:55.643Z,25.50
2022-08-03T15:59:04.664Z,25.27
2022-08-03T16:01:09.043Z,25.05
2022-08-03T16:03:35.845Z,25.01
2022-08-03T16:06:04.366Z,25.52
2022-08-03T16:08:31.738Z,26.71
2022-08-03T16:10:59.251Z,27.30
2022-08-03T16:14:13.637Z,27.17
2022-08-03T16:16:12.821Z,25.80
2022-08-03T16:18:39.515Z,26.12
2022-08-03T16:21:06.154Z,25.92
2022-08-03T16:23:39.625Z,25.53
2022-08-03T16:26:09.430Z,25.42
2022-08-03T16:28:38.110Z,26.54
2022-08-03T16:31:05.581Z,26.82
2022-08-03T16:33:32.320Z,26.94
2022-08-03T16:35:59.291Z,26.56
2022-08-03T16:38:25.870Z,26.85
2022-08-03T16:40:52.579Z,27.77
2022-08-03T16:43:20.704Z,27.54
2022-08-03T16:45:47.646Z,27.58
2022-08-03T16:48:15.265Z,27.88
2022-08-03T16:50:42.431Z,28.58
2022-08-03T16:53:15.700Z,28.53
2022-08-03T16:55:53.267Z,28.62
2022-08-03T16:58:41.716Z,29.00
2022-08-03T17:01:24.096Z,29.51
2022-08-03T17:04:02.952Z,30.29
2022-08-03T17:06:34.585Z,29.62
2022-08-03T17:09:13.223Z,30.46
2022-08-03T17:11:46.564Z,30.97
2022-08-03T17:14:22.049Z,30.51
2022-08-03T17:16:52.460Z,30.85
2022-08-03T17:19:23.994Z,31.21
2022-08-03T17:22:15.841Z,31.04
2022-08-03T17:24:47.742Z,32.97
2022-08-03T17:28:42.379Z,31.73
2022-08-03T17:30:07.801Z,31.76
2022-08-03T17:32:42.766Z,30.35
2022-08-03T17:35:20.892Z,30.48
2022-08-03T17:37:58.218Z,30.43
2022-08-03T17:40:31.204Z,32.18
2022-08-03T17:42:59.742Z,33.11
2022-08-03T17:45:26.413Z,34.03
2022-08-03T17:48:12.990Z,35.11
2022-08-03T17:50:52.228Z,34.75
2022-08-03T17:53:24.706Z,37.50
2022-08-03T17:56:42.583Z,38.20
2022-08-03T17:59:51.629Z,39.67
2022-08-03T18:02:55.293Z,40.42
2022-08-03T18:05:24.691Z,41.55
2022-08-03T18:08:14.030Z,42.44
2022-08-03T18:10:49.933Z,43.43
2022-08-03T18:13:45.085Z,44.95
2022-08-03T18:16:44.321Z,47.88
2022-08-03T18:19:13.651Z,50.14
2022-08-03T18:22:03.366Z,51.41
2022-08-03T18:24:29.668Z,52.63
2022-08-03T18:26:57.256Z,52.87
2022-08-03T18:29:25.349Z,53.09
2022-08-03T18:32:03.298Z,53.12
2022-08-03T18:34:33.902Z,54.00
2022-08-03T18:37:07.177Z,54.79
2022-08-03T18:39:38.939Z,56.75
2022-08-03T18:42:19.699Z,58.00
2022-08-03T18:44:54.329Z,58.83
2022-08-03T18:47:51.792Z,60.58
2022-08-03T18:50:25.207Z,62.43
2022-08-03T18:52:57.426Z,62.06
2022-08-03T18:55:32.970Z,62.13
2022-08-03T18:58:29.813Z,62.86
2022-08-03T19:01:59.049Z,63.87
2022-08-03T19:04:26.149Z,65.56
2022-08-03T19:07:01.751Z,67.20
2022-08-03T19:09:46.746Z,67.82
2022-08-03T19:12:26.554Z,68.70
2022-08-03T19:15:06.105Z,70.44
2022-08-03T19:17:52.951Z,72.33
2022-08-03T19:20:25.672Z,74.16
2022-08-03T19:22:53.263Z,75.19
2022-08-03T19:25:20.155Z,75.63
2022-08-03T19:28:03.446Z,75.34
2022-08-03T19:30:39.152Z,75.96
2022-08-03T19:33:12.586Z,77.39
2022-08-03T19:35:46.676Z,80.10
2022-08-03T19:41:13.859Z,86.06
2022-08-03T19:43:53.275Z,89.82
2022-08-03T19:46:22.566Z,89.88
2022-08-03T19:49:03.953Z,90.00
2022-08-03T19:52:00.723Z,91.90
2022-08-03T19:54:29.618Z,93.32
2022-08-03T19:56:57.699Z,92.94
2022-08-03T19:59:24.495Z,90.41
2022-08-03T20:01:53.102Z,88.85
2022-08-03T20:04:21.375Z,91.24
2022-08-03T20:06:49.600Z,92.32
2022-08-03T20:09:17.750Z,95.00
2022-08-03T20:11:45.120Z,95.25
2022-08-03T20:14:12.060Z,97.81
2022-08-03T20:16:48.902Z,99.88
2022-08-03T20:19:16.674Z,100.00
2022-08-03T20:21:48.375Z,100.00
2022-08-03T20:24:27.237Z,100.00
2022-08-03T20:27:01.338Z,100.00
2022-08-03T20:29:42.710Z,100.00
2022-08-03T20:32:19.037Z,100.00
2022-08-03T20:34:51.193Z,100.00
2022-08-03T20:37:19.629Z,100.00
2022-08-03T20:39:48.289Z,100.00
2022-08-03T20:42:21.178Z,100.00
2022-08-03T20:45:04.374Z,100.00
2022-08-03T20:47:35.747Z,100.00
2022-08-03T20:50:04.175Z,100.00
2022-08-03T20:52:37.133Z,100.00
2022-08-03T20:55:17.769Z,100.00
2022-08-03T20:57:49.199Z,100.00
2022-08-03T21:00:21.847Z,100.00
2022-08-03T21:02:49.175Z,100.00
2022-08-03T21:05:15.771Z,100.00
2022-08-03T21:08:05.164Z,100.00
2022-08-03T21:10:37.987Z,100.00
2022-08-03T21:13:10.803Z,81.85
2022-08-03T21:13:18.164Z,98.91
2022-08-03T21:16:02.934Z,97.66
2022-08-03T21:18:43.662Z,97.63
2022-08-03T21:21:12.710Z,98.24
2022-08-03T21:23:48.161Z,100.00
2022-08-03T21:26:17.497Z,100.00
2022-08-03T21:28:46.205Z,100.00
2022-08-03T21:31:14.001Z,100.00
2022-08-03T21:33:40.910Z,100.00
2022-08-03T21:36:11.092Z,100.00
2022-08-03T21:38:37.738Z,100.00
2022-08-03T21:41:04.367Z,100.00
2022-08-03T21:43:30.959Z,100.00
2022-08-03T21:46:05.530Z,100.00
2022-08-03T21:48:38.514Z,100.00
2022-08-03T21:51:10.002Z,100.00
2022-08-03T21:54:02.790Z,100.00
2022-08-03T21:56:26.270Z,100.00
2022-08-03T21:58:56.127Z,100.00
2022-08-03T22:01:26.766Z,100.00
2022-08-03T22:03:55.110Z,100.00
2022-08-03T22:06:27.733Z,100.00
2022-08-03T22:08:54.371Z,100.00
2022-08-03T22:11:21.040Z,100.00
2022-08-03T22:13:47.685Z,98.79
2022-08-03T22:16:15.157Z,95.01
2022-08-03T22:18:43.372Z,93.67
2022-08-03T22:21:11.709Z,94.46
2022-08-03T22:23:47.002Z,93.36
2022-08-03T22:26:17.192Z,95.96
2022-08-03T22:29:00.838Z,96.91
2022-08-03T22:31:30.718Z,94.97
2022-08-03T22:34:14.117Z,94.67
2022-08-03T22:36:40.941Z,92.91
2022-08-03T22:39:07.690Z,91.79
2022-08-03T22:41:34.359Z,92.23
2022-08-03T22:44:04.581Z,92.64
2022-08-03T22:46:32.987Z,92.20
2022-08-03T22:48:59.875Z,92.36
2022-08-03T22:51:26.591Z,92.61
2022-08-03T22:53:53.187Z,93.50
2022-08-03T22:56:20.010Z,97.95
2022-08-03T22:58:46.667Z,100.00
2022-08-03T23:01:14.642Z,99.99
2022-08-03T23:04:01.122Z,100.00
2022-08-03T23:06:33.563Z,100.00
2022-08-03T23:09:01.711Z,100.00
2022-08-03T23:11:28.581Z,100.00
2022-08-03T23:13:56.953Z,100.00
2022-08-03T23:16:28.601Z,100.00
2022-08-03T23:18:59.573Z,100.00
2022-08-03T23:21:53.676Z,100.00
2022-08-03T23:24:26.124Z,100.00
2022-08-03T23:26:58.086Z,100.00
2022-08-03T23:29:25.781Z,100.00
2022-08-03T23:31:53.696Z,100.00
2022-08-03T23:34:40.197Z,100.00
2022-08-03T23:37:06.825Z,100.00
2022-08-03T23:39:35.338Z,100.00
2022-08-03T23:42:02.923Z,100.00
2022-08-03T23:44:30.756Z,100.00
2022-08-03T23:46:57.355Z,100.00
2022-08-03T23:49:23.978Z,100.00
2022-08-03T23:51:50.471Z,100.00
2022-08-03T23:54:24.251Z,100.00
2022-08-03T23:57:02.449Z,100.00
2022-08-03T23:59:52.102Z,100.00
